Time;durP1;ratioP1;P1;durP2;ratioP2;P2;SDS_P1;SDS_P2;PMS_P1;PMS_P2;Temp;Humidity;BMP_temperature;BMP_pressure;BME280_temperature;BME280_humidity;BME280_pressure;Samples;Min_cycle;Max_cycle;Signal;HPM_P1;HPM_P2
2024/04/06 00:12:54;;;;;;;19.48;8.23;;;16.10;99.90;;;;;;6183141;23;20013;-72
2024/04/06 00:18:12;;;;;;;13.25;7.25;;;16.20;99.90;;;;;;6157587;23;20021;-72
2024/04/06 00:20:38;;;;;;;15.88;7.82;;;16.20;99.90;;;;;;6183758;23;20363;-71
2024/04/06 00:23:04;;;;;;;14.20;7.28;;;16.10;99.90;;;;;;6186208;22;20056;-72
2024/04/06 00:25:31;;;;;;;15.35;7.95;;;16.10;99.90;;;;;;6277421;22;20006;-72
2024/04/06 00:27:56;;;;;;;14.05;7.60;;;16.10;99.90;;;;;;6277347;22;20000;-72
2024/04/06 00:30:22;;;;;;;17.13;8.27;;;16.10;99.90;;;;;;6276687;22;20050;-72
2024/04/06 00:32:48;;;;;;;13.60;7.93;;;16.00;99.90;;;;;;6277405;22;20077;-71
2024/04/06 00:35:15;;;;;;;15.90;7.93;;;16.00;99.90;;;;;;6277081;22;20004;-72
2024/04/06 00:37:41;;;;;;;18.23;7.50;;;16.00;99.90;;;;;;6276928;22;20008;-72
2024/04/06 00:40:08;;;;;;;19.45;8.85;;;16.00;99.90;;;;;;6276774;22;20031;-72
2024/04/06 00:42:34;;;;;;;16.90;9.00;;;16.00;99.90;;;;;;6276843;22;20003;-72
2024/04/06 00:45:00;;;;;;;17.33;8.23;;;15.90;99.90;;;;;;6277139;22;20410;-72
2024/04/06 00:47:26;;;;;;;18.17;7.97;;;15.90;99.90;;;;;;6276949;22;20011;-71
2024/04/06 00:49:52;;;;;;;13.55;7.35;;;15.90;99.90;;;;;;6276769;22;20007;-73
2024/04/06 00:52:18;;;;;;;25.27;8.20;;;15.90;99.90;;;;;;6276677;22;20000;-72
2024/04/06 00:54:43;;;;;;;15.98;7.32;;;15.90;99.90;;;;;;6276967;22;20004;-72
2024/04/06 00:57:09;;;;;;;20.92;7.75;;;15.90;99.90;;;;;;6276516;22;20038;-72
2024/04/06 00:59:37;;;;;;;18.15;7.40;;;15.90;99.90;;;;;;6273028;22;20015;-72
2024/04/06 01:02:04;;;;;;;16.10;7.97;;;15.90;99.90;;;;;;6273381;22;20027;-72
2024/04/06 01:04:29;;;;;;;17.70;7.57;;;15.80;99.90;;;;;;6274390;22;20012;-72
2024/04/06 01:06:56;;;;;;;18.10;7.80;;;15.80;99.90;;;;;;6276595;22;20481;-72
2024/04/06 01:09:23;;;;;;;20.23;7.53;;;15.80;99.90;;;;;;6276575;22;20011;-72
2024/04/06 01:11:49;;;;;;;18.55;7.55;;;15.80;99.90;;;;;;6277105;22;20469;-72
2024/04/06 01:14:15;;;;;;;15.73;8.25;;;15.80;99.90;;;;;;6276690;22;20042;-72
2024/04/06 01:16:41;;;;;;;17.88;7.80;;;15.80;99.90;;;;;;6266945;22;20441;-72
2024/04/06 01:19:07;;;;;;;18.80;8.30;;;15.80;99.90;;;;;;6276496;22;20039;-72
2024/04/06 01:21:33;;;;;;;20.25;7.25;;;15.80;99.90;;;;;;6277223;22;20106;-72
2024/04/06 01:24:04;;;;;;;12.15;7.00;;;15.80;99.90;;;;;;6277728;22;20038;-72
2024/04/06 01:26:33;;;;;;;13.60;7.35;;;15.80;99.90;;;;;;6277108;22;20083;-72
2024/04/06 01:53:47;;;;;;;16.52;7.05;;;15.70;99.90;;;;;;6035548;23;20103;-72
2024/04/06 01:56:13;;;;;;;12.70;7.10;;;15.70;99.90;;;;;;6037236;23;20010;-72
2024/04/06 01:58:39;;;;;;;16.42;7.07;;;15.70;99.90;;;;;;6050758;23;20398;-72
2024/04/06 02:01:05;;;;;;;19.88;7.25;;;15.60;99.90;;;;;;6214279;22;20035;-72
2024/04/06 02:03:31;;;;;;;17.52;7.35;;;15.70;99.90;;;;;;6276401;22;20027;-72
2024/04/06 02:05:58;;;;;;;19.70;6.90;;;15.60;99.90;;;;;;6276585;22;20003;-72
2024/04/06 02:08:24;;;;;;;15.55;7.53;;;15.70;99.90;;;;;;6276435;22;20030;-72
2024/04/06 02:10:50;;;;;;;16.27;7.55;;;15.60;99.90;;;;;;6275966;22;20053;-72
2024/04/06 02:13:15;;;;;;;16.50;8.13;;;15.60;99.90;;;;;;6275982;22;20000;-73
2024/04/06 02:15:41;;;;;;;16.10;7.32;;;15.60;99.90;;;;;;6276397;22;20006;-72
2024/04/06 02:18:07;;;;;;;18.27;8.20;;;15.60;99.90;;;;;;6275978;22;20065;-72
2024/04/06 02:20:33;;;;;;;20.83;6.88;;;15.50;99.90;;;;;;6276503;22;20063;-72
2024/04/06 02:22:58;;;;;;;14.50;7.13;;;15.50;99.90;;;;;;6276180;22;19999;-73
2024/04/06 02:25:24;;;;;;;22.38;7.63;;;15.50;99.90;;;;;;6276475;22;20081;-72
2024/04/06 02:27:50;;;;;;;17.08;6.68;;;15.50;99.90;;;;;;6275883;22;20057;-72
2024/04/06 02:30:15;;;;;;;17.05;7.18;;;15.50;99.90;;;;;;6276220;22;20000;-72
2024/04/06 02:32:41;;;;;;;15.18;6.90;;;15.40;99.90;;;;;;6275959;22;20023;-74
2024/04/06 02:35:07;;;;;;;12.68;6.65;;;15.50;99.90;;;;;;6276169;22;20053;-74
2024/04/06 02:37:33;;;;;;;12.20;6.97;;;15.50;99.90;;;;;;6275794;22;20061;-73
2024/04/06 02:39:59;;;;;;;16.58;7.28;;;15.40;99.90;;;;;;6276269;22;20042;-73
2024/04/06 02:42:25;;;;;;;23.08;7.72;;;15.40;99.90;;;;;;6275963;22;20006;-74
2024/04/06 02:44:50;;;;;;;14.18;6.50;;;15.40;99.90;;;;;;6276228;22;20008;-73
2024/04/06 02:47:17;;;;;;;20.38;7.72;;;15.40;99.90;;;;;;6276183;22;20007;-73
2024/04/06 02:49:42;;;;;;;12.88;7.00;;;15.30;99.90;;;;;;6276038;22;20081;-74
2024/04/06 02:52:08;;;;;;;16.15;7.10;;;15.30;99.90;;;;;;6275830;22;20094;-74
2024/04/06 02:54:34;;;;;;;17.90;7.38;;;15.20;99.90;;;;;;6276212;22;20053;-71
2024/04/06 02:57:00;;;;;;;17.05;6.88;;;15.20;99.90;;;;;;6276677;22;20307;-71
2024/04/06 02:59:29;;;;;;;18.48;6.50;;;15.30;99.90;;;;;;6276513;22;20022;-72
2024/04/06 03:01:55;;;;;;;17.15;7.18;;;15.20;99.90;;;;;;6276607;22;19996;-72
2024/04/06 03:04:21;;;;;;;14.38;6.93;;;15.20;99.90;;;;;;6276485;22;20004;-71
2024/04/06 03:20:58;;;;;;;20.10;7.60;;;15.00;99.90;;;;;;6242999;23;20011;-72
2024/04/06 03:26:31;;;;;;;16.45;7.07;;;14.90;99.90;;;;;;6240067;23;20382;-72
2024/04/06 03:32:25;;;;;;;19.23;6.75;;;14.90;99.90;;;;;;6276558;22;20065;-72
2024/04/06 03:34:51;;;;;;;18.92;8.07;;;14.80;99.90;;;;;;6274015;22;20369;-72
2024/04/06 03:37:17;;;;;;;17.58;6.80;;;14.80;99.90;;;;;;6275322;22;20402;-72
2024/04/06 03:39:43;;;;;;;16.35;8.32;;;14.80;99.90;;;;;;6276213;22;20003;-72
2024/04/06 03:42:08;;;;;;;17.48;6.70;;;14.80;99.90;;;;;;6276092;22;20000;-72
2024/04/06 03:44:34;;;;;;;14.90;6.68;;;14.70;99.90;;;;;;6276103;22;20039;-72
2024/04/06 03:47:00;;;;;;;14.40;6.80;;;14.70;99.90;;;;;;6273868;22;20054;-72
2024/04/06 03:49:26;;;;;;;17.92;7.00;;;14.70;99.90;;;;;;6277028;22;20336;-72
2024/04/06 03:51:52;;;;;;;15.75;6.75;;;14.70;99.90;;;;;;6277993;22;20035;-72
2024/04/06 03:54:18;;;;;;;16.52;6.60;;;14.70;99.90;;;;;;6265801;22;20011;-72
2024/04/06 03:56:43;;;;;;;23.27;7.18;;;14.70;99.90;;;;;;6277502;22;20004;-72
2024/04/06 03:59:09;;;;;;;18.17;7.18;;;14.70;99.90;;;;;;6277220;22;20043;-72
2024/04/06 04:01:35;;;;;;;13.95;6.75;;;14.70;99.90;;;;;;6275983;22;20090;-72
2024/04/06 04:04:01;;;;;;;12.93;6.45;;;14.70;99.90;;;;;;6277612;22;20003;-72
2024/04/06 04:06:26;;;;;;;14.85;7.50;;;14.70;99.90;;;;;;6277547;22;20058;-72
2024/04/06 04:08:52;;;;;;;17.83;6.63;;;14.70;99.90;;;;;;6277896;22;20003;-72
2024/04/06 04:11:18;;;;;;;15.68;6.93;;;14.60;99.90;;;;;;6277382;22;20007;-72
2024/04/06 04:13:44;;;;;;;18.63;6.97;;;14.60;99.90;;;;;;6277815;22;20117;-71
2024/04/06 04:16:09;;;;;;;13.98;6.70;;;14.50;99.90;;;;;;6277656;22;20014;-72
2024/04/06 04:18:35;;;;;;;17.48;6.55;;;14.50;99.90;;;;;;6277240;22;20014;-72
2024/04/06 04:21:01;;;;;;;15.57;6.45;;;14.40;99.90;;;;;;6277351;22;20000;-72
2024/04/06 04:23:27;;;;;;;11.93;6.28;;;14.40;99.90;;;;;;6276906;22;20004;-72
2024/04/06 04:25:53;;;;;;;14.43;6.18;;;14.30;99.90;;;;;;6270493;22;20015;-72
2024/04/06 04:28:18;;;;;;;14.27;7.13;;;14.30;99.90;;;;;;6264306;22;20008;-72
2024/04/06 04:30:44;;;;;;;16.55;6.22;;;14.30;99.90;;;;;;6276884;22;20372;-72
2024/04/06 04:33:10;;;;;;;11.32;5.82;;;14.30;99.90;;;;;;6277234;22;20379;-71
2024/04/06 04:35:36;;;;;;;13.63;6.32;;;14.20;99.90;;;;;;6278219;22;20335;-72
2024/04/06 04:38:03;;;;;;;14.65;6.50;;;14.20;99.90;;;;;;6278366;22;20096;-71
2024/04/06 04:40:38;;;;;;;13.27;7.18;;;14.20;99.90;;;;;;6277790;22;20364;-72
2024/04/06 04:43:49;;;;;;;;;;;;;;;;;;;;;
2024/04/06 04:46:40;;;;;;;13.80;6.78;;;14.20;99.90;;;;;;6243485;23;20091;-72
2024/04/06 04:52:56;;;;;;;;;;;;;;;;;;;;;
2024/04/06 04:56:14;;;;;;;16.58;7.25;;;14.30;99.90;;;;;;6153734;23;20096;-72
2024/04/06 05:06:33;;;;;;;14.27;6.20;;;14.30;99.90;;;;;;6123876;23;20012;-72
2024/04/06 05:09:52;;;;;;;17.10;7.28;;;14.30;99.90;;;;;;6123385;23;20353;-72
2024/04/06 05:12:18;;;;;;;18.02;7.22;;;14.30;99.90;;;;;;6133563;23;20363;-72
2024/04/06 05:14:44;;;;;;;14.40;6.63;;;14.30;99.90;;;;;;6155653;22;20045;-72
2024/04/06 05:17:11;;;;;;;11.43;5.80;;;14.20;99.90;;;;;;6276647;22;20042;-72
2024/04/06 05:19:37;;;;;;;13.30;6.07;;;14.30;99.90;;;;;;6276217;22;20003;-72
2024/04/06 05:22:03;;;;;;;17.73;6.85;;;14.20;99.90;;;;;;6276433;22;20077;-72
2024/04/06 05:24:29;;;;;;;14.95;6.50;;;14.30;99.90;;;;;;6276548;22;20003;-72
2024/04/06 05:26:55;;;;;;;19.52;7.07;;;14.30;99.90;;;;;;6275356;22;20035;-70
2024/04/06 05:29:21;;;;;;;14.93;6.53;;;14.30;99.90;;;;;;6276274;22;20011;-72
2024/04/06 05:31:47;;;;;;;23.00;7.22;;;14.30;99.90;;;;;;6276279;22;20004;-72
2024/04/06 05:34:12;;;;;;;16.98;7.05;;;14.30;99.90;;;;;;6276594;22;20011;-72
2024/04/06 05:36:38;;;;;;;24.58;7.80;;;14.30;99.90;;;;;;6276497;22;20483;-71
2024/04/06 05:39:05;;;;;;;13.75;5.93;;;14.40;99.90;;;;;;6276395;22;20041;-71
2024/04/06 05:41:31;;;;;;;23.75;6.35;;;14.40;99.90;;;;;;6276633;22;20027;-71
2024/04/06 05:43:57;;;;;;;17.15;7.25;;;14.40;99.90;;;;;;6276536;22;19999;-71
2024/04/06 05:46:22;;;;;;;14.90;6.38;;;14.40;99.90;;;;;;6276737;22;20003;-71
2024/04/06 05:48:48;;;;;;;21.38;6.72;;;14.40;99.90;;;;;;6249035;22;20007;-73
2024/04/06 05:51:14;;;;;;;17.92;6.88;;;14.40;99.90;;;;;;6275361;22;20041;-75
2024/04/06 05:53:41;;;;;;;28.10;7.55;;;14.50;99.90;;;;;;6275848;22;20003;-69
2024/04/06 05:56:08;;;;;;;33.83;7.45;;;14.50;99.90;;;;;;6276445;22;20008;-70
2024/04/06 05:58:37;;;;;;;18.85;6.35;;;14.50;99.90;;;;;;6276519;22;20030;-72
2024/04/06 06:01:03;;;;;;;21.17;6.10;;;14.50;99.90;;;;;;6249246;22;20019;-72
2024/04/06 06:03:29;;;;;;;16.42;6.85;;;14.50;99.90;;;;;;6275418;22;20012;-75
2024/04/06 06:05:55;;;;;;;18.80;6.70;;;14.50;99.90;;;;;;6276069;22;20069;-77
2024/04/06 06:08:20;;;;;;;10.27;6.40;;;14.50;99.90;;;;;;6276155;22;20007;-76
2024/04/06 06:10:46;;;;;;;13.70;6.45;;;14.50;99.90;;;;;;6276128;22;20011;-75
2024/04/06 06:13:13;;;;;;;21.45;7.03;;;14.50;99.90;;;;;;6276740;22;20390;-72
2024/04/06 06:15:38;;;;;;;17.25;6.28;;;14.50;99.90;;;;;;6276782;22;20003;-72
2024/04/06 06:18:05;;;;;;;15.73;7.25;;;14.50;99.90;;;;;;6275995;22;20026;-72
2024/04/06 06:20:31;;;;;;;16.23;6.75;;;14.60;99.90;;;;;;6248192;22;20011;-73
2024/04/06 06:22:57;;;;;;;17.90;6.43;;;14.60;99.90;;;;;;6275400;22;20007;-71
2024/04/06 06:26:04;;;;;;;16.00;6.07;;;14.60;99.90;;;;;;6274442;22;20026;-71
2024/04/06 06:29:23;;;;;;;20.10;6.88;;;14.70;99.90;;;;;;6275540;22;20012;-71
2024/04/06 06:32:45;;;;;;;15.15;6.40;;;14.70;99.90;;;;;;6275066;22;20371;-71
2024/04/06 06:35:50;;;;;;;18.48;7.45;;;14.80;99.90;;;;;;6212835;23;20177;-71
2024/04/06 06:39:23;;;;;;;11.35;6.38;;;14.80;99.90;;;;;;6202574;23;20016;-72
2024/04/06 06:42:07;;;;;;;15.07;6.25;;;14.90;99.90;;;;;;6122898;23;20018;-72
2024/04/06 06:44:33;;;;;;;20.77;6.70;;;15.00;99.90;;;;;;6223402;22;20015;-71
2024/04/06 06:47:28;;;;;;;14.80;5.97;;;15.00;99.90;;;;;;6276269;22;20365;-72
2024/04/06 06:50:03;;;;;;;17.77;5.80;;;15.10;99.90;;;;;;6261175;22;20014;-72
2024/04/06 06:52:30;;;;;;;14.00;5.22;;;15.20;99.90;;;;;;6273646;22;20337;-71
2024/04/06 06:54:56;;;;;;;17.73;5.93;;;15.20;99.90;;;;;;6275944;22;20007;-71
2024/04/06 06:57:22;;;;;;;18.33;5.25;;;15.30;99.90;;;;;;6275827;22;20389;-71
2024/04/06 06:59:48;;;;;;;18.23;5.55;;;15.30;99.90;;;;;;6273850;22;20342;-71
2024/04/06 07:02:14;;;;;;;18.15;5.60;;;15.40;99.90;;;;;;6275864;22;20007;-71
2024/04/06 07:04:39;;;;;;;20.90;5.03;;;15.40;99.90;;;;;;6276059;22;20003;-72
2024/04/06 07:07:05;;;;;;;15.38;5.43;;;15.40;99.90;;;;;;6275425;22;20422;-71
2024/04/06 07:09:31;;;;;;;16.98;5.32;;;15.50;99.90;;;;;;6275640;22;20004;-71
2024/04/06 07:14:22;;;;;;;17.48;5.20;;;15.60;99.90;;;;;;6279043;22;20077;-71
2024/04/06 07:16:48;;;;;;;20.80;5.68;;;15.60;99.90;;;;;;6275750;22;20061;-72
2024/04/06 07:19:16;;;;;;;18.73;4.88;;;15.60;99.90;;;;;;6275668;22;20013;-71
2024/04/06 07:21:42;;;;;;;14.88;4.43;;;15.70;99.90;;;;;;6275677;22;20422;-72
2024/04/06 07:24:08;;;;;;;14.02;4.35;;;15.70;99.90;;;;;;6276826;22;20018;-73
2024/04/06 07:26:34;;;;;;;14.25;5.53;;;15.80;99.90;;;;;;6277551;22;19995;-72
2024/04/06 07:28:59;;;;;;;14.25;5.00;;;15.80;99.90;;;;;;6276693;22;20027;-75
2024/04/06 07:31:25;;;;;;;13.45;4.15;;;15.80;99.90;;;;;;6277877;22;20008;-72
2024/04/06 07:33:51;;;;;;;16.90;4.85;;;15.90;99.90;;;;;;6277605;22;20012;-72
2024/04/06 07:36:18;;;;;;;12.65;3.80;;;16.00;99.90;;;;;;6277819;22;20003;-71
2024/04/06 07:38:44;;;;;;;13.40;4.15;;;16.00;99.90;;;;;;6277232;22;20019;-71
2024/04/06 07:41:10;;;;;;;19.50;3.90;;;16.10;99.90;;;;;;6277667;22;19996;-71
2024/04/06 07:43:36;;;;;;;12.85;3.95;;;16.10;99.90;;;;;;6277866;22;20004;-72
2024/04/06 07:46:02;;;;;;;14.98;4.05;;;16.20;99.90;;;;;;6278007;22;20088;-71
2024/04/06 07:48:28;;;;;;;8.88;3.40;;;16.20;99.90;;;;;;6277387;22;20027;-72
2024/04/06 07:50:54;;;;;;;11.57;3.65;;;16.30;99.90;;;;;;6277415;22;20001;-73
2024/04/06 07:53:19;;;;;;;10.88;3.13;;;16.30;99.90;;;;;;6277484;22;20000;-71
2024/04/06 07:55:46;;;;;;;10.23;2.55;;;16.40;99.90;;;;;;6278419;22;20417;-72
2024/04/06 07:58:12;;;;;;;14.10;2.83;;;16.40;99.90;;;;;;6278066;22;20020;-72
2024/04/06 08:00:38;;;;;;;12.85;3.05;;;16.50;99.90;;;;;;6278511;22;20004;-73
2024/04/06 08:03:07;;;;;;;9.82;2.50;;;16.50;99.90;;;;;;6278188;22;20027;-71
2024/04/06 08:10:01;;;;;;;8.57;2.92;;;16.60;99.90;;;;;;6278181;22;20006;-71
2024/04/06 08:12:48;;;;;;;7.88;2.40;;;16.70;99.90;;;;;;6244266;23;20008;-71
2024/04/06 08:25:45;;;;;;;10.88;2.58;;;16.80;99.90;;;;;;6076354;23;20050;-72
2024/04/06 08:28:49;;;;;;;9.70;2.28;;;;;;;;;;6124299;23;20010;-72
2024/04/06 08:31:15;;;;;;;6.05;1.92;;;16.90;99.90;;;;;;6077424;23;20024;-72
2024/04/06 08:33:42;;;;;;;8.88;2.15;;;17.00;99.90;;;;;;6222683;23;20015;-72
2024/04/06 08:36:08;;;;;;;13.77;3.92;;;17.00;99.90;;;;;;6244993;23;20354;-73
2024/04/06 08:38:33;;;;;;;12.90;2.58;;;17.10;99.90;;;;;;6246570;23;20331;-72
2024/04/06 08:41:09;;;;;;;11.00;2.42;;;17.10;99.90;;;;;;6246606;23;20004;-71
2024/04/06 08:43:38;;;;;;;15.70;4.10;;;17.20;99.90;;;;;;6244180;23;20011;-72
2024/04/06 08:46:05;;;;;;;10.20;2.65;;;;;;;;;;6243158;23;20079;-72
2024/04/06 08:48:34;;;;;;;7.70;2.55;;;17.40;99.90;;;;;;6242953;23;20338;-73
2024/04/06 08:51:03;;;;;;;12.82;2.47;;;17.40;99.90;;;;;;6246439;23;20099;-74
2024/04/06 08:53:29;;;;;;;10.10;2.30;;;17.40;99.90;;;;;;6246549;23;20050;-72
2024/04/06 08:55:56;;;;;;;11.57;2.83;;;17.40;99.90;;;;;;6246689;23;20422;-71
2024/04/06 08:58:22;;;;;;;7.40;2.53;;;17.50;99.90;;;;;;6246128;23;20430;-72
2024/04/06 09:00:50;;;;;;;9.10;2.20;;;17.60;99.90;;;;;;6246517;23;20008;-72
2024/04/06 09:03:16;;;;;;;12.15;2.55;;;17.60;99.90;;;;;;6246696;23;20095;-73
2024/04/06 09:05:42;;;;;;;9.75;2.08;;;17.70;99.90;;;;;;6246287;23;20032;-73
2024/04/06 09:08:13;;;;;;;7.07;2.25;;;17.70;99.90;;;;;;6244530;23;20537;-73
2024/04/06 09:10:39;;;;;;;11.68;2.35;;;17.70;99.90;;;;;;6242602;23;20504;-73
2024/04/06 09:13:05;;;;;;;10.77;2.65;;;17.70;99.90;;;;;;6242858;23;20008;-78
2024/04/06 09:15:35;;;;;;;18.88;3.45;;;17.80;99.90;;;;;;6254810;22;20026;-79
2024/04/06 09:18:02;;;;;;;10.48;3.90;;;17.90;99.90;;;;;;6275439;22;20023;-78
2024/04/06 09:20:28;;;;;;;10.32;2.97;;;17.90;99.90;;;;;;6276444;22;20008;-79
2024/04/06 09:22:55;;;;;;;12.27;3.25;;;17.90;99.90;;;;;;6275827;22;20004;-79
2024/04/06 09:25:24;;;;;;;12.45;3.00;;;18.00;99.90;;;;;;6276694;22;20430;-78
2024/04/06 09:27:50;;;;;;;10.82;2.40;;;18.00;99.90;;;;;;6276674;22;20364;-79
2024/04/06 09:30:21;;;;;;;9.68;2.85;;;18.10;99.90;;;;;;6276417;22;20053;-78
2024/04/06 09:32:49;;;;;;;15.97;3.83;;;18.10;99.90;;;;;;6276743;22;20529;-79
2024/04/06 09:35:15;;;;;;;11.73;2.65;;;18.10;99.90;;;;;;6277253;22;19999;-72
2024/04/06 09:37:45;;;;;;;10.82;2.28;;;18.20;99.90;;;;;;6277072;22;20016;-72
2024/04/06 09:40:12;;;;;;;9.52;2.33;;;18.20;99.90;;;;;;6277041;22;20088;-71
2024/04/06 09:42:38;;;;;;;10.68;2.20;;;18.20;99.90;;;;;;6277215;22;20011;-72
2024/04/06 09:45:29;;;;;;;5.05;1.95;;;18.30;99.90;;;;;;6277189;22;20380;-72
2024/04/06 09:51:55;;;;;;;8.75;2.13;;;18.40;99.90;;;;;;6213388;23;20055;-72
2024/04/06 10:08:56;;;;;;;6.80;2.35;;;18.60;98.80;;;;;;6127340;23;20379;-72
2024/04/06 10:11:40;;;;;;;9.27;2.47;;;18.70;98.70;;;;;;6145716;23;20009;-72
2024/04/06 10:14:34;;;;;;;9.52;2.22;;;18.70;98.30;;;;;;6182088;23;20120;-72
2024/04/06 10:17:10;;;;;;;8.05;1.58;;;18.70;97.80;;;;;;6182841;23;20454;-73
2024/04/06 10:19:38;;;;;;;7.40;1.75;;;18.80;98.10;;;;;;6237132;22;20338;-71
2024/04/06 10:22:06;;;;;;;6.95;2.20;;;18.80;98.80;;;;;;6276158;22;20074;-73
2024/04/06 10:24:35;;;;;;;7.85;2.10;;;18.80;99.20;;;;;;6276221;22;20012;-72
2024/04/06 10:27:01;;;;;;;12.18;2.80;;;18.90;99.30;;;;;;6276063;22;20006;-72
2024/04/06 10:29:31;;;;;;;8.05;2.42;;;18.90;99.10;;;;;;6276644;22;20003;-72
2024/04/06 10:31:57;;;;;;;8.93;2.60;;;19.00;98.80;;;;;;6276171;22;20022;-70
2024/04/06 10:34:24;;;;;;;9.27;2.40;;;19.00;98.80;;;;;;6275785;22;20031;-71
2024/04/06 10:36:50;;;;;;;10.48;2.60;;;19.00;98.50;;;;;;6276329;22;20004;-73
2024/04/06 10:39:17;;;;;;;8.15;1.92;;;19.00;98.60;;;;;;6276001;22;20102;-71
2024/04/06 10:41:43;;;;;;;9.82;2.47;;;19.10;97.80;;;;;;6276234;22;20000;-72
2024/04/06 10:44:10;;;;;;;7.10;2.30;;;19.10;98.10;;;;;;6275777;22;20472;-70
2024/04/06 10:46:36;;;;;;;8.10;2.30;;;19.10;97.10;;;;;;6274718;22;20441;-73
2024/04/06 10:49:08;;;;;;;6.47;1.92;;;19.10;97.20;;;;;;6276456;22;20031;-70
2024/04/06 10:51:34;;;;;;;10.30;2.50;;;19.20;98.00;;;;;;6275998;22;20371;-73
2024/04/06 10:54:00;;;;;;;11.40;2.90;;;19.20;98.20;;;;;;6276110;22;20007;-72
2024/04/06 10:56:26;;;;;;;10.30;3.20;;;19.20;98.50;;;;;;6275849;22;20003;-70
2024/04/06 10:58:53;;;;;;;9.60;3.22;;;19.30;98.40;;;;;;6275515;22;20437;-72
2024/04/06 11:01:20;;;;;;;11.05;3.65;;;19.30;98.20;;;;;;6276019;22;20010;-72
2024/04/06 11:03:50;;;;;;;9.88;3.25;;;19.40;97.90;;;;;;6276171;22;20322;-72
2024/04/06 11:06:16;;;;;;;7.13;3.10;;;19.40;97.80;;;;;;6275811;22;20003;-72
2024/04/06 11:08:42;;;;;;;7.55;2.65;;;19.40;97.60;;;;;;6276072;22;20007;-72
2024/04/06 11:11:11;;;;;;;10.27;3.00;;;19.50;97.60;;;;;;6276049;22;20073;-72
2024/04/06 11:13:41;;;;;;;12.40;3.38;;;19.50;98.00;;;;;;6273615;22;20004;-72
2024/04/06 11:16:10;;;;;;;10.15;4.53;;;19.50;97.30;;;;;;6272117;22;20019;-72
2024/04/06 11:18:40;;;;;;;11.50;4.55;;;19.60;97.30;;;;;;6274661;22;20012;-73
2024/04/06 11:21:13;;;;;;;11.15;4.80;;;19.60;97.00;;;;;;6276659;22;19996;-70
2024/04/06 11:23:40;;;;;;;8.88;3.47;;;19.60;97.20;;;;;;6276584;22;20087;-72
2024/04/06 11:26:10;;;;;;;9.35;3.63;;;19.60;97.30;;;;;;6276491;22;20004;-72
2024/04/06 11:33:05;;;;;;;6.72;3.03;;;19.80;97.30;;;;;;6122725;23;20017;-70
2024/04/06 11:35:52;;;;;;;12.07;3.45;;;19.80;97.50;;;;;;6122065;23;20037;-69
2024/04/06 11:39:34;;;;;;;;;;;;;;;;;;;;;
2024/04/06 11:53:26;;;;;;;21.08;3.38;;;20.00;97.00;;;;;;6035596;23;20019;-70
2024/04/06 11:55:54;;;;;;;9.40;2.97;;;20.00;96.70;;;;;;6064648;23;20072;-72
2024/04/06 11:58:20;;;;;;;8.32;2.80;;;20.10;96.50;;;;;;6244010;22;20015;-72
2024/04/06 12:00:46;;;;;;;10.15;3.53;;;20.10;96.20;;;;;;6275677;22;19999;-72
2024/04/06 12:03:12;;;;;;;8.00;2.63;;;20.10;96.00;;;;;;6274327;22;20000;-70
2024/04/06 12:05:38;;;;;;;6.97;1.95;;;20.20;95.70;;;;;;6275782;22;20075;-70
2024/04/06 12:08:04;;;;;;;13.27;2.80;;;20.20;96.00;;;;;;6275109;22;20011;-71
2024/04/06 12:10:31;;;;;;;6.88;2.53;;;20.20;95.60;;;;;;6276679;22;20330;-72
2024/04/06 12:12:57;;;;;;;11.30;3.35;;;20.20;95.50;;;;;;6277280;22;20054;-71
2024/04/06 12:15:23;;;;;;;8.00;2.95;;;20.20;95.50;;;;;;6276535;22;20012;-72
2024/04/06 12:17:49;;;;;;;11.02;2.50;;;20.20;95.80;;;;;;6276940;22;20453;-72
2024/04/06 12:20:15;;;;;;;8.35;2.63;;;20.30;96.00;;;;;;6277260;22;19999;-73
2024/04/06 12:22:41;;;;;;;9.20;3.08;;;20.30;95.70;;;;;;6277067;22;20004;-70
2024/04/06 12:25:07;;;;;;;8.90;2.83;;;20.30;96.00;;;;;;6277706;22;20000;-72
2024/04/06 12:27:33;;;;;;;7.18;1.98;;;20.30;95.70;;;;;;6277318;22;20007;-69
2024/04/06 12:29:58;;;;;;;7.97;1.83;;;20.40;96.00;;;;;;6278000;22;20091;-72
2024/04/06 12:32:25;;;;;;;10.73;3.45;;;20.40;96.30;;;;;;6276856;22;20003;-70
2024/04/06 12:34:51;;;;;;;10.30;2.53;;;20.50;95.10;;;;;;6277053;22;20095;-79
2024/04/06 12:37:17;;;;;;;11.98;2.75;;;20.50;95.50;;;;;;6277500;22;20031;-76
2024/04/06 12:39:42;;;;;;;11.98;2.75;;;20.50;95.70;;;;;;6277363;22;20010;-79
2024/04/06 12:42:08;;;;;;;9.50;2.35;;;20.50;95.50;;;;;;6276934;22;20000;-77
2024/04/06 12:44:34;;;;;;;7.75;2.25;;;20.60;95.40;;;;;;6277150;22;20011;-79
2024/04/06 12:47:01;;;;;;;7.78;2.22;;;20.60;95.50;;;;;;6277211;22;20063;-76
2024/04/06 12:49:29;;;;;;;5.47;2.20;;;20.60;95.20;;;;;;6277141;22;20003;-79
2024/04/06 12:51:56;;;;;;;11.70;2.70;;;20.70;94.70;;;;;;6277467;22;20008;-76
2024/04/06 12:54:21;;;;;;;8.82;2.70;;;20.60;94.60;;;;;;6291798;22;20341;-70
2024/04/06 12:59:33;;;;;;;13.25;2.30;;;20.70;94.90;;;;;;6307885;22;20080;-71
2024/04/06 13:01:59;;;;;;;8.77;2.67;;;20.70;95.40;;;;;;6308046;22;20433;-72
2024/04/06 13:04:24;;;;;;;9.60;2.55;;;20.70;94.90;;;;;;6307453;22;19996;-72
2024/04/06 13:06:50;;;;;;;5.85;2.28;;;20.70;94.90;;;;;;6307650;22;19991;-70
2024/04/06 13:09:16;;;;;;;6.57;2.10;;;20.70;94.70;;;;;;6308785;22;20432;-72
2024/04/06 13:11:43;;;;;;;8.45;2.03;;;20.80;95.10;;;;;;6308662;22;20405;-69
2024/04/06 13:14:09;;;;;;;9.45;2.58;;;20.80;94.60;;;;;;6308728;22;20010;-72
2024/04/06 13:16:45;;;;;;;11.43;2.63;;;20.80;94.40;;;;;;6308956;22;20299;-71
2024/04/06 13:19:47;;;;;;;7.40;2.22;;;20.80;94.20;;;;;;6308047;22;20017;-71
2024/04/06 13:26:02;;;;;;;8.02;2.72;;;20.80;94.30;;;;;;6123586;23;20134;-72
2024/04/06 13:42:08;;;;;;;3.97;1.65;;;20.90;93.50;;;;;;6134766;23;20017;-70
2024/04/06 13:44:34;;;;;;;;;;;20.90;93.30;;;;;;6308316;22;20008;-71
2024/04/06 13:47:00;;;;;;;9.65;2.72;;;20.90;93.30;;;;;;6307588;22;20229;-72
2024/04/06 13:49:27;;;;;;;9.63;2.53;;;20.90;93.00;;;;;;6307424;22;20279;-69
2024/04/06 13:51:52;;;;;;;9.10;2.10;;;20.90;93.20;;;;;;6305948;22;20080;-71
2024/04/06 13:54:18;;;;;;;6.03;1.92;;;20.90;93.60;;;;;;6306948;22;20015;-73
2024/04/06 13:56:45;;;;;;;6.05;1.80;;;20.90;93.40;;;;;;6307618;22;20356;-72
2024/04/06 13:59:11;;;;;;;7.90;2.38;;;20.90;93.10;;;;;;6307444;22;20014;-72
2024/04/06 14:01:37;;;;;;;10.95;2.60;;;20.90;92.90;;;;;;6307756;22;20339;-70
2024/04/06 14:04:03;;;;;;;13.35;2.85;;;20.90;93.20;;;;;;6307086;22;19999;-72
2024/04/06 14:06:29;;;;;;;8.10;2.92;;;20.90;93.20;;;;;;6307218;22;19999;-70
2024/04/06 14:08:55;;;;;;;10.27;2.20;;;20.90;92.90;;;;;;6307469;22;19999;-70
2024/04/06 14:11:32;;;;;;;7.43;2.15;;;20.90;93.00;;;;;;6307271;22;20367;-69
2024/04/06 14:14:02;;;;;;;8.82;2.72;;;20.90;92.50;;;;;;6307395;22;19995;-70
2024/04/06 14:16:29;;;;;;;6.88;2.33;;;20.90;92.30;;;;;;6307253;22;20010;-70
2024/04/06 14:18:56;;;;;;;8.40;1.92;;;20.90;92.50;;;;;;6307298;22;20007;-72
2024/04/06 14:21:22;;;;;;;6.05;2.38;;;20.90;92.40;;;;;;6307397;22;20000;-77
2024/04/06 14:23:48;;;;;;;13.65;2.70;;;20.90;92.30;;;;;;6305440;22;20034;-79
2024/04/06 14:26:14;;;;;;;7.65;2.05;;;20.90;92.00;;;;;;6307422;22;20325;-81
2024/04/06 14:28:40;;;;;;;7.40;2.22;;;20.90;92.30;;;;;;6307142;22;20087;-75
2024/04/06 14:31:08;;;;;;;8.48;2.55;;;21.00;92.50;;;;;;6279782;22;20425;-81
2024/04/06 14:33:34;;;;;;;11.63;2.83;;;20.90;92.20;;;;;;6306530;22;20437;-72
2024/04/06 14:36:00;;;;;;;7.10;2.33;;;20.90;91.80;;;;;;6306992;22;20023;-71
2024/04/06 14:38:26;;;;;;;9.90;2.30;;;20.90;91.70;;;;;;6306782;22;20019;-81
2024/04/06 14:40:53;;;;;;;9.52;2.97;;;20.90;92.20;;;;;;6307884;22;20070;-68
2024/04/06 14:43:19;;;;;;;11.07;2.45;;;20.90;92.40;;;;;;6304388;22;20310;-68
2024/04/06 14:45:45;;;;;;;7.72;2.67;;;20.90;92.40;;;;;;6304649;22;20011;-68
2024/04/06 14:48:11;;;;;;;11.05;2.55;;;20.90;92.30;;;;;;6306064;22;20003;-68
2024/04/06 14:50:37;;;;;;;10.02;2.80;;;20.90;92.20;;;;;;6307853;22;20429;-70
2024/04/06 15:10:26;;;;;;;9.85;3.22;;;20.80;91.70;;;;;;6149383;23;20020;-71
2024/04/06 15:12:52;;;;;;;17.80;3.45;;;20.80;91.60;;;;;;6148723;23;20017;-71
2024/04/06 15:15:58;;;;;;;9.55;2.75;;;20.80;91.60;;;;;;6152476;23;20448;-70
2024/04/06 15:18:54;;;;;;;10.50;3.25;;;20.80;91.90;;;;;;6152456;23;20017;-70
2024/04/06 15:21:21;;;;;;;10.68;3.38;;;20.70;91.90;;;;;;6128047;23;20332;-70
2024/04/06 15:23:46;;;;;;;8.88;2.92;;;20.80;91.40;;;;;;6152260;23;20064;-70
2024/04/06 15:26:12;;;;;;;13.40;3.95;;;20.70;91.40;;;;;;6212973;22;20008;-70
2024/04/06 15:28:38;;;;;;;9.88;3.13;;;20.70;91.60;;;;;;6307352;22;20014;-70
2024/04/06 15:31:04;;;;;;;7.82;3.28;;;20.60;91.50;;;;;;6306504;22;20125;-70
2024/04/06 15:33:30;;;;;;;13.30;3.75;;;20.60;91.80;;;;;;6306585;22;20409;-70